Aérodrome :
LOGIN :

S'inscrire | Disclaimer

   EN    FR    IT 

 










Légende :    VFR   VFR Marginal   IFR   IFR Intensif   IFR Très Intensif
Visi : 
Plafond : 
>= 8 km
>= 3000ft
5 à 8 km
1000 à 3000 ft
1500m à 5 km
500 à 1000 ft
800 à 1500m
200 à 500 ft
< 800m
< 200 ft
Symboles :   Orages  Brouillard  Fortes neiges  Fortes précipitations  Vent > 20 kt
SIGMETs :   Divers  Orages  Givrage  Turbulence  Onde Orograph.  Cendres Volcan.






- Altitude de l'aérodrome : 26 ft
- Code IATA : KLX


LGKL - Kalamata AB

DERNIER METAR :
  • 200350Z AUTO 14012KT //// -RA ////// 20/15 Q1016 RE//

METARs EXPIRÉS :
  • 200320Z AUTO 15011KT //// -RA ////// 20/15 Q1017 RE//
  • 200250Z AUTO 14009KT //// // ////// 20/14 Q1017 RE//
  • 200220Z AUTO 17009KT //// // ////// 20/14 Q1017 RE//
  • 200150Z AUTO 17011KT //// // ////// 20/14 Q1017 RE//
  • 200120Z AUTO 10006KT 360V170 //// // ////// 19/14 Q1017 RE//

TAF TAF LGKL
Valide du 20 à 03h jusqu'au 20 à 12h UTC


200200Z 2003/2012 15010KT 9999 BKN020 BKN080
TEMPO 2003/2012 4000 RA
TEMPO 2003/2012 3000 TSRA FEW018CB BKN020 BKN080



MET'MAP, la Météo Aéronautique d'un coup d'oeil ! - Copyright ORBIFLY Décembre 2007 - Disclaimer

ORBIFLY MET'MAP TEAM :

Programmation & Développement : Alexandra Zaïnal
Conception & Développement : Baudouin d'Aumeries
Co-Programmation & Développement : Marc-Olivier Méhu
Soutien technique & logistique : Manuel Goepfert

Contact : metmap@orbifly.com




SOURCES & CREDITS :

   NOAA